sensor_id;sensor_type;location;lat;lon;timestamp;P1;durP1;ratioP1;P2;durP2;ratioP2
33138;SDS011;19501;50.948;5.316;2023-02-24T00:01:21;32.97;;;8.85;;
33138;SDS011;19501;50.948;5.316;2023-02-24T00:03:52;29.60;;;9.15;;
33138;SDS011;19501;50.948;5.316;2023-02-24T00:06:22;35.00;;;7.95;;
33138;SDS011;19501;50.948;5.316;2023-02-24T00:08:49;35.38;;;8.15;;
33138;SDS011;19501;50.948;5.316;2023-02-24T00:11:15;27.75;;;7.32;;
33138;SDS011;19501;50.948;5.316;2023-02-24T00:13:43;31.60;;;7.30;;
33138;SDS011;19501;50.948;5.316;2023-02-24T00:16:12;25.52;;;6.80;;
33138;SDS011;19501;50.948;5.316;2023-02-24T00:18:43;32.45;;;7.60;;
33138;SDS011;19501;50.948;5.316;2023-02-24T00:21:10;25.48;;;6.75;;
33138;SDS011;19501;50.948;5.316;2023-02-24T00:23:39;25.95;;;5.78;;
33138;SDS011;19501;50.948;5.316;2023-02-24T00:26:06;29.08;;;6.28;;
33138;SDS011;19501;50.948;5.316;2023-02-24T00:28:33;24.35;;;6.10;;
33138;SDS011;19501;50.948;5.316;2023-02-24T00:31:09;25.33;;;5.45;;
33138;SDS011;19501;50.948;5.316;2023-02-24T00:33:38;29.27;;;6.10;;
33138;SDS011;19501;50.948;5.316;2023-02-24T00:36:09;22.45;;;5.55;;
33138;SDS011;19501;50.948;5.316;2023-02-24T00:38:52;30.30;;;6.68;;
33138;SDS011;19501;50.948;5.316;2023-02-24T00:41:26;28.17;;;6.28;;
33138;SDS011;19501;50.948;5.316;2023-02-24T00:43:53;27.58;;;5.88;;
33138;SDS011;19501;50.948;5.316;2023-02-24T00:46:24;24.08;;;6.03;;
33138;SDS011;19501;50.948;5.316;2023-02-24T00:48:51;25.80;;;5.40;;
33138;SDS011;19501;50.948;5.316;2023-02-24T00:51:19;24.08;;;6.25;;
33138;SDS011;19501;50.948;5.316;2023-02-24T00:53:52;23.10;;;5.33;;
33138;SDS011;19501;50.948;5.316;2023-02-24T00:56:23;23.95;;;6.13;;
33138;SDS011;19501;50.948;5.316;2023-02-24T00:58:54;24.10;;;5.78;;
33138;SDS011;19501;50.948;5.316;2023-02-24T01:01:24;30.73;;;5.82;;
33138;SDS011;19501;50.948;5.316;2023-02-24T01:03:53;26.60;;;5.90;;
33138;SDS011;19501;50.948;5.316;2023-02-24T01:06:19;27.08;;;5.55;;
33138;SDS011;19501;50.948;5.316;2023-02-24T01:08:47;22.60;;;6.00;;
33138;SDS011;19501;50.948;5.316;2023-02-24T01:11:15;22.30;;;5.00;;
33138;SDS011;19501;50.948;5.316;2023-02-24T01:14:08;24.95;;;4.95;;
33138;SDS011;19501;50.948;5.316;2023-02-24T01:16:38;26.85;;;5.18;;
33138;SDS011;19501;50.948;5.316;2023-02-24T01:19:06;24.83;;;5.97;;
33138;SDS011;19501;50.948;5.316;2023-02-24T01:21:33;24.23;;;4.68;;
33138;SDS011;19501;50.948;5.316;2023-02-24T01:23:59;28.70;;;5.00;;
33138;SDS011;19501;50.948;5.316;2023-02-24T01:26:25;23.95;;;5.97;;
33138;SDS011;19501;50.948;5.316;2023-02-24T01:28:55;22.77;;;5.28;;
33138;SDS011;19501;50.948;5.316;2023-02-24T01:31:21;28.85;;;5.70;;
33138;SDS011;19501;50.948;5.316;2023-02-24T01:33:47;27.65;;;5.88;;
33138;SDS011;19501;50.948;5.316;2023-02-24T01:36:21;22.05;;;4.50;;
33138;SDS011;19501;50.948;5.316;2023-02-24T01:38:49;31.90;;;4.97;;
33138;SDS011;19501;50.948;5.316;2023-02-24T01:41:17;29.88;;;5.45;;
33138;SDS011;19501;50.948;5.316;2023-02-24T01:46:22;22.73;;;4.97;;
33138;SDS011;19501;50.948;5.316;2023-02-24T01:48:50;33.60;;;5.78;;
33138;SDS011;19501;50.948;5.316;2023-02-24T01:51:19;33.30;;;5.13;;
33138;SDS011;19501;50.948;5.316;2023-02-24T01:53:45;27.67;;;5.35;;
33138;SDS011;19501;50.948;5.316;2023-02-24T01:56:11;32.30;;;5.63;;
33138;SDS011;19501;50.948;5.316;2023-02-24T01:58:37;25.17;;;4.75;;
33138;SDS011;19501;50.948;5.316;2023-02-24T02:01:05;31.75;;;5.10;;
33138;SDS011;19501;50.948;5.316;2023-02-24T02:03:34;41.13;;;5.43;;
33138;SDS011;19501;50.948;5.316;2023-02-24T02:06:05;32.60;;;5.10;;
33138;SDS011;19501;50.948;5.316;2023-02-24T02:08:37;32.95;;;5.32;;
33138;SDS011;19501;50.948;5.316;2023-02-24T02:11:09;36.58;;;6.40;;
33138;SDS011;19501;50.948;5.316;2023-02-24T02:13:46;29.67;;;5.45;;
33138;SDS011;19501;50.948;5.316;2023-02-24T02:22:17;37.50;;;6.03;;
33138;SDS011;19501;50.948;5.316;2023-02-24T02:38:51;34.55;;;6.05;;
33138;SDS011;19501;50.948;5.316;2023-02-24T02:47:05;30.40;;;5.88;;
33138;SDS011;19501;50.948;5.316;2023-02-24T02:49:43;30.90;;;5.45;;
33138;SDS011;19501;50.948;5.316;2023-02-24T02:52:14;35.90;;;5.10;;
33138;SDS011;19501;50.948;5.316;2023-02-24T02:54:52;28.98;;;4.93;;
33138;SDS011;19501;50.948;5.316;2023-02-24T02:57:23;27.52;;;4.90;;
33138;SDS011;19501;50.948;5.316;2023-02-24T02:59:54;28.23;;;5.15;;
33138;SDS011;19501;50.948;5.316;2023-02-24T03:02:24;29.88;;;4.60;;
33138;SDS011;19501;50.948;5.316;2023-02-24T03:04:54;28.88;;;5.03;;
33138;SDS011;19501;50.948;5.316;2023-02-24T03:07:28;30.45;;;5.07;;
33138;SDS011;19501;50.948;5.316;2023-02-24T03:10:00;23.13;;;5.22;;
33138;SDS011;19501;50.948;5.316;2023-02-24T03:12:34;31.15;;;5.90;;
33138;SDS011;19501;50.948;5.316;2023-02-24T03:15:05;27.75;;;5.95;;
33138;SDS011;19501;50.948;5.316;2023-02-24T03:17:36;27.05;;;5.30;;
33138;SDS011;19501;50.948;5.316;2023-02-24T03:20:08;25.05;;;4.65;;
33138;SDS011;19501;50.948;5.316;2023-02-24T03:23:04;27.83;;;5.80;;
33138;SDS011;19501;50.948;5.316;2023-02-24T03:25:35;27.45;;;4.93;;
33138;SDS011;19501;50.948;5.316;2023-02-24T03:28:11;36.25;;;5.18;;
33138;SDS011;19501;50.948;5.316;2023-02-24T03:30:52;32.17;;;5.97;;
33138;SDS011;19501;50.948;5.316;2023-02-24T03:33:35;37.17;;;5.95;;
33138;SDS011;19501;50.948;5.316;2023-02-24T03:36:05;24.20;;;4.65;;
33138;SDS011;19501;50.948;5.316;2023-02-24T03:38:31;31.15;;;5.25;;
33138;SDS011;19501;50.948;5.316;2023-02-24T03:41:02;29.25;;;5.25;;
33138;SDS011;19501;50.948;5.316;2023-02-24T03:43:35;27.90;;;5.47;;
33138;SDS011;19501;50.948;5.316;2023-02-24T03:46:11;28.85;;;5.35;;
33138;SDS011;19501;50.948;5.316;2023-02-24T03:48:40;38.10;;;6.65;;
33138;SDS011;19501;50.948;5.316;2023-02-24T03:51:17;28.63;;;5.40;;
33138;SDS011;19501;50.948;5.316;2023-02-24T04:01:53;31.75;;;6.10;;
33138;SDS011;19501;50.948;5.316;2023-02-24T04:04:53;28.60;;;5.78;;
33138;SDS011;19501;50.948;5.316;2023-02-24T04:15:58;33.80;;;6.18;;
33138;SDS011;19501;50.948;5.316;2023-02-24T04:18:41;31.95;;;5.97;;
33138;SDS011;19501;50.948;5.316;2023-02-24T04:21:13;39.50;;;8.05;;
33138;SDS011;19501;50.948;5.316;2023-02-24T04:23:41;30.95;;;7.47;;
33138;SDS011;19501;50.948;5.316;2023-02-24T04:26:08;30.38;;;7.50;;
33138;SDS011;19501;50.948;5.316;2023-02-24T04:28:38;25.77;;;6.70;;
33138;SDS011;19501;50.948;5.316;2023-02-24T04:31:06;31.08;;;5.57;;
33138;SDS011;19501;50.948;5.316;2023-02-24T04:33:42;25.70;;;5.40;;
33138;SDS011;19501;50.948;5.316;2023-02-24T04:36:14;22.70;;;5.50;;
33138;SDS011;19501;50.948;5.316;2023-02-24T04:38:44;24.27;;;5.90;;
33138;SDS011;19501;50.948;5.316;2023-02-24T04:41:10;21.73;;;4.65;;
33138;SDS011;19501;50.948;5.316;2023-02-24T04:43:41;22.05;;;4.90;;
33138;SDS011;19501;50.948;5.316;2023-02-24T04:46:07;26.85;;;5.82;;
33138;SDS011;19501;50.948;5.316;2023-02-24T04:48:33;27.08;;;4.93;;
33138;SDS011;19501;50.948;5.316;2023-02-24T04:50:59;34.05;;;6.15;;
33138;SDS011;19501;50.948;5.316;2023-02-24T04:53:27;24.40;;;5.47;;
33138;SDS011;19501;50.948;5.316;2023-02-24T04:55:53;36.20;;;5.43;;
33138;SDS011;19501;50.948;5.316;2023-02-24T04:58:21;23.40;;;5.18;;
33138;SDS011;19501;50.948;5.316;2023-02-24T05:00:51;25.85;;;5.22;;
33138;SDS011;19501;50.948;5.316;2023-02-24T05:03:17;26.67;;;5.68;;
33138;SDS011;19501;50.948;5.316;2023-02-24T05:05:51;25.95;;;5.22;;
33138;SDS011;19501;50.948;5.316;2023-02-24T05:08:22;24.45;;;5.03;;
33138;SDS011;19501;50.948;5.316;2023-02-24T05:10:49;19.13;;;5.13;;
33138;SDS011;19501;50.948;5.316;2023-02-24T05:13:17;29.00;;;5.25;;
33138;SDS011;19501;50.948;5.316;2023-02-24T05:15:45;26.63;;;5.63;;
33138;SDS011;19501;50.948;5.316;2023-02-24T05:18:14;33.70;;;6.40;;
33138;SDS011;19501;50.948;5.316;2023-02-24T05:20:45;32.88;;;5.03;;
33138;SDS011;19501;50.948;5.316;2023-02-24T05:23:46;21.90;;;4.50;;
33138;SDS011;19501;50.948;5.316;2023-02-24T05:26:13;27.30;;;5.60;;
33138;SDS011;19501;50.948;5.316;2023-02-24T05:28:41;28.83;;;5.70;;
33138;SDS011;19501;50.948;5.316;2023-02-24T05:31:11;24.13;;;4.50;;
33138;SDS011;19501;50.948;5.316;2023-02-24T05:33:41;19.25;;;5.05;;
33138;SDS011;19501;50.948;5.316;2023-02-24T05:36:09;25.63;;;5.65;;
33138;SDS011;19501;50.948;5.316;2023-02-24T05:38:48;25.52;;;4.88;;
33138;SDS011;19501;50.948;5.316;2023-02-24T05:41:20;23.67;;;5.05;;
33138;SDS011;19501;50.948;5.316;2023-02-24T05:43:50;27.88;;;5.93;;
33138;SDS011;19501;50.948;5.316;2023-02-24T05:46:22;32.83;;;5.70;;
33138;SDS011;19501;50.948;5.316;2023-02-24T05:48:55;25.33;;;5.07;;
33138;SDS011;19501;50.948;5.316;2023-02-24T05:51:22;22.75;;;5.05;;
33138;SDS011;19501;50.948;5.316;2023-02-24T05:53:52;28.75;;;6.15;;
33138;SDS011;19501;50.948;5.316;2023-02-24T05:56:21;19.42;;;4.28;;
33138;SDS011;19501;50.948;5.316;2023-02-24T05:58:47;23.02;;;5.07;;
33138;SDS011;19501;50.948;5.316;2023-02-24T06:01:14;20.15;;;5.00;;
33138;SDS011;19501;50.948;5.316;2023-02-24T06:03:44;19.85;;;4.82;;
33138;SDS011;19501;50.948;5.316;2023-02-24T06:06:14;20.60;;;4.55;;
33138;SDS011;19501;50.948;5.316;2023-02-24T06:08:43;16.17;;;3.73;;
33138;SDS011;19501;50.948;5.316;2023-02-24T06:11:16;39.45;;;6.88;;
33138;SDS011;19501;50.948;5.316;2023-02-24T06:13:46;28.83;;;5.93;;
33138;SDS011;19501;50.948;5.316;2023-02-24T06:16:13;25.13;;;5.22;;
33138;SDS011;19501;50.948;5.316;2023-02-24T06:18:40;22.70;;;5.47;;
33138;SDS011;19501;50.948;5.316;2023-02-24T06:21:06;20.38;;;4.72;;
33138;SDS011;19501;50.948;5.316;2023-02-24T06:23:32;27.17;;;5.47;;
33138;SDS011;19501;50.948;5.316;2023-02-24T06:26:01;26.05;;;5.03;;
33138;SDS011;19501;50.948;5.316;2023-02-24T06:28:28;29.70;;;5.28;;
33138;SDS011;19501;50.948;5.316;2023-02-24T06:30:54;20.52;;;5.47;;
33138;SDS011;19501;50.948;5.316;2023-02-24T06:33:20;20.25;;;4.40;;
33138;SDS011;19501;50.948;5.316;2023-02-24T06:35:46;16.27;;;4.95;;
33138;SDS011;19501;50.948;5.316;2023-02-24T06:38:12;28.17;;;6.30;;
33138;SDS011;19501;50.948;5.316;2023-02-24T06:40:39;26.48;;;6.38;;
33138;SDS011;19501;50.948;5.316;2023-02-24T06:43:07;32.40;;;7.05;;
33138;SDS011;19501;50.948;5.316;2023-02-24T06:45:33;25.10;;;5.80;;
33138;SDS011;19501;50.948;5.316;2023-02-24T06:47:59;26.23;;;5.70;;
33138;SDS011;19501;50.948;5.316;2023-02-24T06:50:27;29.45;;;7.07;;
33138;SDS011;19501;50.948;5.316;2023-02-24T06:52:55;27.98;;;7.97;;
33138;SDS011;19501;50.948;5.316;2023-02-24T06:55:25;34.03;;;7.07;;
33138;SDS011;19501;50.948;5.316;2023-02-24T07:00:21;31.58;;;6.45;;
33138;SDS011;19501;50.948;5.316;2023-02-24T07:03:22;24.52;;;6.30;;
33138;SDS011;19501;50.948;5.316;2023-02-24T07:06:04;31.63;;;7.25;;
33138;SDS011;19501;50.948;5.316;2023-02-24T07:08:48;27.50;;;6.93;;
33138;SDS011;19501;50.948;5.316;2023-02-24T07:11:16;28.13;;;6.82;;
33138;SDS011;19501;50.948;5.316;2023-02-24T07:13:43;28.83;;;6.22;;
33138;SDS011;19501;50.948;5.316;2023-02-24T07:16:11;37.30;;;7.88;;
33138;SDS011;19501;50.948;5.316;2023-02-24T07:18:42;28.17;;;6.85;;
33138;SDS011;19501;50.948;5.316;2023-02-24T07:21:12;24.65;;;6.32;;
33138;SDS011;19501;50.948;5.316;2023-02-24T07:23:40;26.60;;;7.13;;
33138;SDS011;19501;50.948;5.316;2023-02-24T07:26:14;28.17;;;7.60;;
33138;SDS011;19501;50.948;5.316;2023-02-24T07:28:42;32.85;;;6.65;;
33138;SDS011;19501;50.948;5.316;2023-02-24T07:31:10;34.05;;;7.93;;
33138;SDS011;19501;50.948;5.316;2023-02-24T07:33:38;33.03;;;8.15;;
33138;SDS011;19501;50.948;5.316;2023-02-24T07:36:05;34.83;;;10.25;;
33138;SDS011;19501;50.948;5.316;2023-02-24T07:38:38;32.65;;;7.82;;
33138;SDS011;19501;50.948;5.316;2023-02-24T07:41:05;34.70;;;9.23;;
33138;SDS011;19501;50.948;5.316;2023-02-24T07:43:32;33.75;;;8.52;;
33138;SDS011;19501;50.948;5.316;2023-02-24T07:46:10;33.95;;;8.45;;
33138;SDS011;19501;50.948;5.316;2023-02-24T07:48:38;26.80;;;7.97;;
33138;SDS011;19501;50.948;5.316;2023-02-24T07:51:06;37.72;;;9.07;;
33138;SDS011;19501;50.948;5.316;2023-02-24T07:53:36;29.33;;;8.82;;
33138;SDS011;19501;50.948;5.316;2023-02-24T07:56:08;28.38;;;7.95;;
33138;SDS011;19501;50.948;5.316;2023-02-24T07:58:47;31.73;;;8.38;;
33138;SDS011;19501;50.948;5.316;2023-02-24T08:01:17;34.88;;;8.43;;
33138;SDS011;19501;50.948;5.316;2023-02-24T08:03:52;33.65;;;7.82;;
33138;SDS011;19501;50.948;5.316;2023-02-24T08:06:34;28.67;;;8.27;;
33138;SDS011;19501;50.948;5.316;2023-02-24T08:09:07;29.83;;;7.80;;
33138;SDS011;19501;50.948;5.316;2023-02-24T08:11:55;32.60;;;8.40;;
33138;SDS011;19501;50.948;5.316;2023-02-24T08:14:25;29.83;;;7.60;;
33138;SDS011;19501;50.948;5.316;2023-02-24T08:16:56;29.30;;;7.90;;
33138;SDS011;19501;50.948;5.316;2023-02-24T08:19:23;24.35;;;7.72;;
33138;SDS011;19501;50.948;5.316;2023-02-24T08:21:57;31.20;;;8.57;;
33138;SDS011;19501;50.948;5.316;2023-02-24T08:24:43;32.22;;;8.60;;
33138;SDS011;19501;50.948;5.316;2023-02-24T08:27:18;27.38;;;8.27;;
33138;SDS011;19501;50.948;5.316;2023-02-24T08:29:47;30.60;;;8.23;;
33138;SDS011;19501;50.948;5.316;2023-02-24T08:32:25;30.77;;;8.80;;
33138;SDS011;19501;50.948;5.316;2023-02-24T08:35:05;37.40;;;8.05;;
33138;SDS011;19501;50.948;5.316;2023-02-24T08:37:46;29.98;;;8.40;;
33138;SDS011;19501;50.948;5.316;2023-02-24T08:40:29;29.92;;;8.48;;
33138;SDS011;19501;50.948;5.316;2023-02-24T08:45:40;29.48;;;8.45;;
33138;SDS011;19501;50.948;5.316;2023-02-24T08:48:18;28.38;;;7.53;;
33138;SDS011;19501;50.948;5.316;2023-02-24T08:51:01;35.05;;;7.45;;
33138;SDS011;19501;50.948;5.316;2023-02-24T08:53:33;31.33;;;8.23;;
33138;SDS011;19501;50.948;5.316;2023-02-24T08:56:00;26.52;;;7.03;;
33138;SDS011;19501;50.948;5.316;2023-02-24T08:58:40;35.95;;;7.75;;
33138;SDS011;19501;50.948;5.316;2023-02-24T09:01:15;26.17;;;7.47;;
33138;SDS011;19501;50.948;5.316;2023-02-24T09:03:48;29.25;;;8.15;;
33138;SDS011;19501;50.948;5.316;2023-02-24T09:06:17;29.95;;;7.28;;
33138;SDS011;19501;50.948;5.316;2023-02-24T09:08:53;33.08;;;8.73;;
33138;SDS011;19501;50.948;5.316;2023-02-24T09:11:40;32.15;;;7.97;;
33138;SDS011;19501;50.948;5.316;2023-02-24T09:14:12;30.92;;;7.82;;
33138;SDS011;19501;50.948;5.316;2023-02-24T09:16:44;26.05;;;7.53;;
33138;SDS011;19501;50.948;5.316;2023-02-24T09:22:04;36.80;;;9.80;;
33138;SDS011;19501;50.948;5.316;2023-02-24T09:24:53;29.25;;;8.20;;
33138;SDS011;19501;50.948;5.316;2023-02-24T09:27:39;32.13;;;8.35;;
33138;SDS011;19501;50.948;5.316;2023-02-24T09:30:09;30.15;;;7.38;;
33138;SDS011;19501;50.948;5.316;2023-02-24T09:32:55;26.88;;;6.75;;
33138;SDS011;19501;50.948;5.316;2023-02-24T09:35:28;28.27;;;7.38;;
33138;SDS011;19501;50.948;5.316;2023-02-24T09:37:58;37.25;;;8.88;;
33138;SDS011;19501;50.948;5.316;2023-02-24T09:40:30;26.95;;;8.10;;
33138;SDS011;19501;50.948;5.316;2023-02-24T09:43:04;25.42;;;6.43;;
33138;SDS011;19501;50.948;5.316;2023-02-24T09:45:41;24.27;;;6.30;;
33138;SDS011;19501;50.948;5.316;2023-02-24T09:48:19;26.35;;;7.20;;
33138;SDS011;19501;50.948;5.316;2023-02-24T09:50:50;21.67;;;6.10;;
33138;SDS011;19501;50.948;5.316;2023-02-24T09:53:25;28.45;;;6.53;;
33138;SDS011;19501;50.948;5.316;2023-02-24T09:56:04;25.15;;;6.15;;
33138;SDS011;19501;50.948;5.316;2023-02-24T10:01:20;24.27;;;6.28;;
33138;SDS011;19501;50.948;5.316;2023-02-24T10:03:55;20.98;;;5.68;;
33138;SDS011;19501;50.948;5.316;2023-02-24T10:06:41;25.55;;;6.05;;
33138;SDS011;19501;50.948;5.316;2023-02-24T10:09:29;28.63;;;6.13;;
33138;SDS011;19501;50.948;5.316;2023-02-24T10:12:12;26.92;;;6.55;;
33138;SDS011;19501;50.948;5.316;2023-02-24T10:17:30;23.85;;;5.63;;
33138;SDS011;19501;50.948;5.316;2023-02-24T10:20:13;22.50;;;5.80;;
33138;SDS011;19501;50.948;5.316;2023-02-24T10:23:13;25.95;;;5.68;;
33138;SDS011;19501;50.948;5.316;2023-02-24T10:32:20;28.00;;;5.32;;
33138;SDS011;19501;50.948;5.316;2023-02-24T10:34:58;24.73;;;5.13;;
33138;SDS011;19501;50.948;5.316;2023-02-24T10:37:25;28.73;;;5.45;;
33138;SDS011;19501;50.948;5.316;2023-02-24T10:40:03;26.35;;;5.75;;
33138;SDS011;19501;50.948;5.316;2023-02-24T10:42:33;25.83;;;5.32;;
33138;SDS011;19501;50.948;5.316;2023-02-24T10:50:38;24.63;;;6.70;;
33138;SDS011;19501;50.948;5.316;2023-02-24T10:53:12;20.55;;;5.20;;
33138;SDS011;19501;50.948;5.316;2023-02-24T10:55:54;28.23;;;5.72;;
33138;SDS011;19501;50.948;5.316;2023-02-24T10:58:42;22.60;;;4.82;;
33138;SDS011;19501;50.948;5.316;2023-02-24T11:01:23;22.45;;;5.53;;
33138;SDS011;19501;50.948;5.316;2023-02-24T11:04:14;27.55;;;6.32;;
33138;SDS011;19501;50.948;5.316;2023-02-24T11:07:03;21.80;;;5.03;;
33138;SDS011;19501;50.948;5.316;2023-02-24T11:12:45;22.60;;;5.43;;
33138;SDS011;19501;50.948;5.316;2023-02-24T11:15:34;30.25;;;5.65;;
33138;SDS011;19501;50.948;5.316;2023-02-24T11:18:21;23.83;;;4.95;;
33138;SDS011;19501;50.948;5.316;2023-02-24T11:20:53;29.98;;;5.25;;
33138;SDS011;19501;50.948;5.316;2023-02-24T11:23:31;21.17;;;4.80;;
33138;SDS011;19501;50.948;5.316;2023-02-24T11:33:51;26.70;;;6.45;;
33138;SDS011;19501;50.948;5.316;2023-02-24T11:36:26;16.38;;;3.90;;
33138;SDS011;19501;50.948;5.316;2023-02-24T11:39:04;20.17;;;4.20;;
33138;SDS011;19501;50.948;5.316;2023-02-24T11:41:47;18.27;;;4.55;;
33138;SDS011;19501;50.948;5.316;2023-02-24T11:46:48;19.25;;;4.82;;
33138;SDS011;19501;50.948;5.316;2023-02-24T11:49:34;21.13;;;5.35;;
33138;SDS011;19501;50.948;5.316;2023-02-24T11:52:17;20.63;;;6.07;;
33138;SDS011;19501;50.948;5.316;2023-02-24T11:54:50;24.13;;;5.00;;
33138;SDS011;19501;50.948;5.316;2023-02-24T11:57:20;20.98;;;4.88;;
33138;SDS011;19501;50.948;5.316;2023-02-24T12:06:01;22.83;;;5.10;;
33138;SDS011;19501;50.948;5.316;2023-02-24T12:11:51;21.73;;;5.50;;
33138;SDS011;19501;50.948;5.316;2023-02-24T12:19:36;23.13;;;4.85;;
33138;SDS011;19501;50.948;5.316;2023-02-24T12:22:15;19.00;;;4.90;;
33138;SDS011;19501;50.948;5.316;2023-02-24T12:24:43;16.60;;;5.13;;
33138;SDS011;19501;50.948;5.316;2023-02-24T12:29:59;21.33;;;5.10;;
33138;SDS011;19501;50.948;5.316;2023-02-24T12:32:59;22.63;;;6.13;;
33138;SDS011;19501;50.948;5.316;2023-02-24T12:35:35;20.20;;;4.75;;
33138;SDS011;19501;50.948;5.316;2023-02-24T12:43:50;18.17;;;4.90;;
33138;SDS011;19501;50.948;5.316;2023-02-24T12:46:42;29.98;;;5.15;;
33138;SDS011;19501;50.948;5.316;2023-02-24T12:54:43;15.90;;;4.70;;
33138;SDS011;19501;50.948;5.316;2023-02-24T13:00:32;19.77;;;5.10;;
33138;SDS011;19501;50.948;5.316;2023-02-24T13:03:20;24.90;;;5.70;;
33138;SDS011;19501;50.948;5.316;2023-02-24T13:06:18;21.52;;;5.90;;
33138;SDS011;19501;50.948;5.316;2023-02-24T13:11:42;19.17;;;5.65;;
33138;SDS011;19501;50.948;5.316;2023-02-24T13:16:46;20.13;;;5.50;;
33138;SDS011;19501;50.948;5.316;2023-02-24T13:19:19;22.63;;;5.72;;
33138;SDS011;19501;50.948;5.316;2023-02-24T13:24:36;19.48;;;5.32;;
33138;SDS011;19501;50.948;5.316;2023-02-24T13:27:05;19.58;;;5.25;;
33138;SDS011;19501;50.948;5.316;2023-02-24T13:29:41;20.00;;;5.40;;
33138;SDS011;19501;50.948;5.316;2023-02-24T13:32:30;19.48;;;5.15;;
33138;SDS011;19501;50.948;5.316;2023-02-24T13:37:28;15.15;;;5.30;;
33138;SDS011;19501;50.948;5.316;2023-02-24T13:40:00;18.73;;;5.85;;
33138;SDS011;19501;50.948;5.316;2023-02-24T13:42:43;26.50;;;7.07;;
33138;SDS011;19501;50.948;5.316;2023-02-24T13:45:21;28.98;;;8.15;;
33138;SDS011;19501;50.948;5.316;2023-02-24T13:53:25;21.88;;;6.88;;
33138;SDS011;19501;50.948;5.316;2023-02-24T13:58:48;22.08;;;6.90;;
33138;SDS011;19501;50.948;5.316;2023-02-24T14:04:30;24.63;;;6.97;;
33138;SDS011;19501;50.948;5.316;2023-02-24T14:07:04;21.40;;;7.05;;
33138;SDS011;19501;50.948;5.316;2023-02-24T14:09:38;22.70;;;7.10;;
33138;SDS011;19501;50.948;5.316;2023-02-24T14:12:12;23.85;;;7.68;;
33138;SDS011;19501;50.948;5.316;2023-02-24T14:14:47;22.70;;;7.40;;
33138;SDS011;19501;50.948;5.316;2023-02-24T14:17:33;23.70;;;6.97;;
33138;SDS011;19501;50.948;5.316;2023-02-24T14:20:21;21.75;;;6.68;;
33138;SDS011;19501;50.948;5.316;2023-02-24T14:25:15;27.63;;;8.43;;
33138;SDS011;19501;50.948;5.316;2023-02-24T14:27:42;24.42;;;8.32;;
33138;SDS011;19501;50.948;5.316;2023-02-24T14:32:54;22.00;;;7.38;;
33138;SDS011;19501;50.948;5.316;2023-02-24T14:35:30;21.42;;;7.68;;
33138;SDS011;19501;50.948;5.316;2023-02-24T14:37:59;26.50;;;8.38;;
33138;SDS011;19501;50.948;5.316;2023-02-24T14:40:25;26.80;;;8.00;;
33138;SDS011;19501;50.948;5.316;2023-02-24T14:42:51;23.65;;;7.93;;
33138;SDS011;19501;50.948;5.316;2023-02-24T14:45:19;24.45;;;8.20;;
33138;SDS011;19501;50.948;5.316;2023-02-24T14:47:51;27.67;;;8.07;;
33138;SDS011;19501;50.948;5.316;2023-02-24T14:50:19;31.60;;;10.27;;
33138;SDS011;19501;50.948;5.316;2023-02-24T14:55:20;29.42;;;9.50;;
33138;SDS011;19501;50.948;5.316;2023-02-24T14:58:00;27.92;;;8.27;;
33138;SDS011;19501;50.948;5.316;2023-02-24T15:00:29;26.35;;;9.45;;
33138;SDS011;19501;50.948;5.316;2023-02-24T15:03:16;31.92;;;10.25;;
33138;SDS011;19501;50.948;5.316;2023-02-24T15:05:51;29.65;;;10.07;;
33138;SDS011;19501;50.948;5.316;2023-02-24T15:10:47;29.38;;;9.80;;
33138;SDS011;19501;50.948;5.316;2023-02-24T15:13:15;28.10;;;10.57;;
33138;SDS011;19501;50.948;5.316;2023-02-24T15:15:49;29.50;;;10.68;;
33138;SDS011;19501;50.948;5.316;2023-02-24T15:18:19;31.63;;;10.95;;
33138;SDS011;19501;50.948;5.316;2023-02-24T15:21:00;32.45;;;10.30;;
33138;SDS011;19501;50.948;5.316;2023-02-24T15:23:38;29.55;;;11.07;;
33138;SDS011;19501;50.948;5.316;2023-02-24T15:26:04;25.75;;;10.57;;
33138;SDS011;19501;50.948;5.316;2023-02-24T15:28:48;29.67;;;11.23;;
33138;SDS011;19501;50.948;5.316;2023-02-24T15:31:22;26.50;;;11.27;;
33138;SDS011;19501;50.948;5.316;2023-02-24T15:33:52;29.15;;;11.32;;
33138;SDS011;19501;50.948;5.316;2023-02-24T15:36:21;29.75;;;11.82;;
33138;SDS011;19501;50.948;5.316;2023-02-24T15:38:52;32.55;;;12.05;;
33138;SDS011;19501;50.948;5.316;2023-02-24T15:41:25;37.75;;;14.25;;
33138;SDS011;19501;50.948;5.316;2023-02-24T15:44:05;31.05;;;12.77;;
33138;SDS011;19501;50.948;5.316;2023-02-24T15:46:45;29.60;;;12.70;;
33138;SDS011;19501;50.948;5.316;2023-02-24T15:49:11;34.53;;;13.38;;
33138;SDS011;19501;50.948;5.316;2023-02-24T15:54:48;31.83;;;13.00;;
33138;SDS011;19501;50.948;5.316;2023-02-24T15:56:58;34.45;;;13.52;;
33138;SDS011;19501;50.948;5.316;2023-02-24T15:59:25;30.17;;;12.32;;
33138;SDS011;19501;50.948;5.316;2023-02-24T16:01:51;32.15;;;13.30;;
33138;SDS011;19501;50.948;5.316;2023-02-24T16:04:18;34.92;;;12.10;;
33138;SDS011;19501;50.948;5.316;2023-02-24T16:06:45;29.58;;;13.25;;
33138;SDS011;19501;50.948;5.316;2023-02-24T16:09:30;37.80;;;14.02;;
33138;SDS011;19501;50.948;5.316;2023-02-24T16:12:20;40.78;;;14.98;;
33138;SDS011;19501;50.948;5.316;2023-02-24T16:14:49;35.47;;;15.07;;
33138;SDS011;19501;50.948;5.316;2023-02-24T16:19:59;35.88;;;15.23;;
33138;SDS011;19501;50.948;5.316;2023-02-24T16:22:26;39.85;;;16.70;;
33138;SDS011;19501;50.948;5.316;2023-02-24T16:24:53;29.50;;;14.43;;
33138;SDS011;19501;50.948;5.316;2023-02-24T16:27:20;36.03;;;15.75;;
33138;SDS011;19501;50.948;5.316;2023-02-24T16:29:47;41.45;;;16.92;;
33138;SDS011;19501;50.948;5.316;2023-02-24T16:32:14;38.17;;;16.67;;
33138;SDS011;19501;50.948;5.316;2023-02-24T16:34:39;39.17;;;16.60;;
33138;SDS011;19501;50.948;5.316;2023-02-24T16:37:16;37.97;;;17.38;;
33138;SDS011;19501;50.948;5.316;2023-02-24T16:39:43;38.17;;;17.52;;
33138;SDS011;19501;50.948;5.316;2023-02-24T16:42:13;39.78;;;17.65;;
33138;SDS011;19501;50.948;5.316;2023-02-24T16:44:40;45.90;;;19.38;;
33138;SDS011;19501;50.948;5.316;2023-02-24T16:47:06;42.70;;;19.20;;
33138;SDS011;19501;50.948;5.316;2023-02-24T16:49:36;48.92;;;19.80;;
33138;SDS011;19501;50.948;5.316;2023-02-24T16:52:02;42.47;;;20.70;;
33138;SDS011;19501;50.948;5.316;2023-02-24T16:54:28;39.17;;;19.90;;
33138;SDS011;19501;50.948;5.316;2023-02-24T16:56:54;41.13;;;20.73;;
33138;SDS011;19501;50.948;5.316;2023-02-24T16:59:20;46.85;;;20.63;;
33138;SDS011;19501;50.948;5.316;2023-02-24T17:01:46;53.47;;;22.85;;
33138;SDS011;19501;50.948;5.316;2023-02-24T17:04:12;54.47;;;21.83;;
33138;SDS011;19501;50.948;5.316;2023-02-24T17:06:38;43.22;;;19.23;;
33138;SDS011;19501;50.948;5.316;2023-02-24T17:09:04;55.22;;;21.45;;
33138;SDS011;19501;50.948;5.316;2023-02-24T17:11:30;46.58;;;21.33;;
33138;SDS011;19501;50.948;5.316;2023-02-24T17:13:57;51.70;;;22.38;;
33138;SDS011;19501;50.948;5.316;2023-02-24T17:16:23;46.03;;;20.80;;
33138;SDS011;19501;50.948;5.316;2023-02-24T17:18:51;52.75;;;20.38;;
33138;SDS011;19501;50.948;5.316;2023-02-24T17:21:21;49.00;;;20.10;;
33138;SDS011;19501;50.948;5.316;2023-02-24T17:23:48;47.53;;;18.77;;
33138;SDS011;19501;50.948;5.316;2023-02-24T17:26:15;47.45;;;19.90;;
33138;SDS011;19501;50.948;5.316;2023-02-24T17:28:41;43.17;;;19.38;;
33138;SDS011;19501;50.948;5.316;2023-02-24T17:31:07;53.88;;;21.00;;
33138;SDS011;19501;50.948;5.316;2023-02-24T17:33:33;45.17;;;19.02;;
33138;SDS011;19501;50.948;5.316;2023-02-24T17:35:59;47.03;;;20.35;;
33138;SDS011;19501;50.948;5.316;2023-02-24T17:38:27;46.33;;;19.33;;